Time;durP1;ratioP1;P1;durP2;ratioP2;P2;SDS_P1;SDS_P2;PMS_P1;PMS_P2;Temp;Humidity;BMP_temperature;BMP_pressure;BME280_temperature;BME280_humidity;BME280_pressure;Samples;Min_cycle;Max_cycle;Signal;HPM_P1;HPM_P2
2022/10/08 00:01:34;;;;;;;3.40;3.10;;;;;;;12.99;100.00;96668.69;5062261;28;22148;-74
2022/10/08 00:04:03;;;;;;;3.63;3.30;;;;;;;12.96;100.00;96666.44;5064835;28;20214;-75
2022/10/08 00:06:32;;;;;;;5.00;3.77;;;;;;;13.01;100.00;96674.69;5059953;28;20202;-74
2022/10/08 00:09:01;;;;;;;4.80;3.97;;;;;;;12.95;100.00;96678.34;5066952;28;20208;-75
2022/10/08 00:11:30;;;;;;;7.00;3.80;;;;;;;12.98;100.00;96675.16;5062666;28;20293;-74
2022/10/08 00:13:58;;;;;;;4.40;3.80;;;;;;;12.98;100.00;96670.56;5057556;28;20210;-74
2022/10/08 00:16:27;;;;;;;5.57;3.70;;;;;;;12.92;100.00;96662.56;5062395;28;20229;-74
2022/10/08 00:18:57;;;;;;;4.00;3.60;;;;;;;12.88;100.00;96663.03;5055872;28;20205;-74
2022/10/08 00:21:28;;;;;;;3.93;3.53;;;;;;;12.89;100.00;96655.72;5061705;28;20209;-74
2022/10/08 00:23:56;;;;;;;5.30;3.57;;;;;;;12.91;100.00;96660.91;5066049;28;20253;-74
2022/10/08 00:26:26;;;;;;;5.53;3.47;;;;;;;12.91;100.00;96652.78;5061380;28;20212;-74
2022/10/08 00:28:55;;;;;;;4.23;3.70;;;;;;;12.86;100.00;96654.31;5062580;28;20212;-75
2022/10/08 00:31:25;;;;;;;4.60;4.00;;;;;;;12.79;100.00;96659.03;5059006;28;20304;-74
2022/10/08 00:33:53;;;;;;;4.10;3.50;;;;;;;12.82;100.00;96653.16;5061004;28;20205;-75
2022/10/08 00:36:21;;;;;;;5.13;3.47;;;;;;;12.76;100.00;96651.34;5063479;28;20205;-74
2022/10/08 00:38:54;;;;;;;5.90;3.67;;;;;;;12.77;100.00;96654.91;5063821;28;20201;-75
2022/10/08 00:41:22;;;;;;;4.07;3.67;;;;;;;12.80;100.00;96651.72;5062947;28;20219;-75
2022/10/08 00:43:52;;;;;;;4.77;3.47;;;;;;;12.79;100.00;96650.06;5059308;28;20226;-75
2022/10/08 00:46:27;;;;;;;4.60;3.43;;;;;;;12.76;100.00;96645.94;5076769;28;20237;-74
2022/10/08 00:49:02;;;;;;;4.60;3.83;;;;;;;12.72;100.00;96655.63;5058584;28;20211;-75
2022/10/08 00:51:30;;;;;;;4.00;3.37;;;;;;;12.72;100.00;96647.50;5061981;28;20246;-75
2022/10/08 00:54:01;;;;;;;7.60;3.60;;;;;;;12.81;100.00;96646.06;5063810;28;20203;-75
2022/10/08 00:56:29;;;;;;;4.00;3.60;;;;;;;12.84;100.00;96650.19;5061453;28;20206;-75
2022/10/08 00:58:57;;;;;;;5.93;3.70;;;;;;;12.84;100.00;96650.19;5063416;28;20202;-75
2022/10/08 01:01:24;;;;;;;6.17;3.40;;;;;;;12.85;100.00;96647.22;5062778;28;20212;-74
2022/10/08 01:03:51;;;;;;;7.47;3.77;;;;;;;12.86;100.00;96642.63;5060863;28;20261;-74
2022/10/08 01:06:27;;;;;;;4.50;3.57;;;;;;;12.82;100.00;96642.31;5061121;28;20212;-75
2022/10/08 01:09:03;;;;;;;6.47;3.83;;;;;;;12.77;100.00;96635.94;5065758;28;20215;-75
2022/10/08 01:11:46;;;;;;;8.23;3.53;;;;;;;12.77;100.00;96647.59;5060618;28;20236;-74
2022/10/08 01:14:24;;;;;;;6.73;4.00;;;;;;;12.69;100.00;96645.25;5061461;28;20212;-74
2022/10/08 01:16:57;;;;;;;4.93;3.90;;;;;;;12.67;100.00;96633.00;5062551;28;20312;-75
2022/10/08 01:19:47;;;;;;;8.10;4.17;;;;;;;12.61;100.00;96634.75;5063172;28;20243;-74
2022/10/08 01:22:29;;;;;;;4.80;3.60;;;;;;;12.58;100.00;96635.25;5054098;28;20221;-75
2022/10/08 01:28:02;;;;;;;4.17;3.77;;;;;;;12.59;100.00;96633.38;5060858;28;20244;-75
2022/10/08 01:30:35;;;;;;;5.47;3.90;;;;;;;12.59;100.00;96631.47;5062580;28;20267;-75
2022/10/08 01:33:11;;;;;;;10.27;3.70;;;;;;;12.56;100.00;96631.13;5061932;28;20209;-75
2022/10/08 01:35:43;;;;;;;6.03;3.83;;;;;;;12.49;100.00;96623.13;5078594;28;20198;-75
2022/10/08 01:38:15;;;;;;;7.27;4.03;;;;;;;12.44;100.00;96617.56;5059426;28;20205;-75
2022/10/08 01:40:44;;;;;;;8.73;3.73;;;;;;;12.47;100.00;96622.53;5059311;28;20266;-75
2022/10/08 01:43:17;;;;;;;7.40;3.77;;;;;;;12.37;100.00;96620.41;5056225;28;20229;-74
2022/10/08 01:45:49;;;;;;;5.50;4.00;;;;;;;12.24;100.00;96617.94;5058522;28;20209;-75
2022/10/08 01:48:22;;;;;;;8.13;4.40;;;;;;;12.08;100.00;96614.00;5055064;28;20212;-75
2022/10/08 01:50:53;;;;;;;4.83;4.00;;;;;;;12.15;100.00;96613.09;5064002;28;20233;-75
2022/10/08 01:53:24;;;;;;;12.70;7.50;;;;;;;12.20;100.00;96600.50;5060355;28;20212;-75
2022/10/08 01:55:54;;;;;;;7.13;5.13;;;;;;;12.23;100.00;96591.09;5063948;28;20198;-75
2022/10/08 01:58:32;;;;;;;10.63;5.73;;;;;;;12.27;100.00;96597.66;5061925;28;20269;-75
2022/10/08 02:01:05;;;;;;;6.70;5.07;;;;;;;12.27;100.00;96594.97;5058648;28;20298;-75
2022/10/08 02:03:32;;;;;;;6.87;5.60;;;;;;;12.30;100.00;96603.44;5051611;28;20225;-75
2022/10/08 02:06:02;;;;;;;5.93;4.60;;;;;;;12.34;100.00;96593.78;5062819;28;20239;-75
2022/10/08 02:08:29;;;;;;;6.53;4.60;;;;;;;12.34;100.00;96601.06;5063362;28;20304;-75
2022/10/08 02:10:56;;;;;;;5.73;4.70;;;;;;;12.33;100.00;96600.28;5062537;28;20220;-74
2022/10/08 02:13:25;;;;;;;7.90;4.70;;;;;;;12.28;100.00;96605.56;5067045;28;20212;-74
2022/10/08 02:16:00;;;;;;;5.23;4.20;;;;;;;12.30;100.00;96595.31;5064713;28;20237;-74
2022/10/08 02:18:34;;;;;;;6.83;3.60;;;;;;;12.29;100.00;96598.25;5058345;28;20210;-75
2022/10/08 02:21:08;;;;;;;4.97;3.60;;;;;;;12.33;100.00;96594.03;5068048;28;20201;-75
2022/10/08 02:23:41;;;;;;;4.60;3.27;;;;;;;12.31;100.00;96588.03;5064755;28;20233;-75
2022/10/08 02:26:12;;;;;;;5.27;3.70;;;;;;;12.39;100.00;96603.91;5066680;28;20292;-75
2022/10/08 02:28:45;;;;;;;4.73;3.70;;;;;;;12.41;100.00;96596.41;5066493;28;20207;-74
2022/10/08 02:31:18;;;;;;;6.53;3.83;;;;;;;12.45;100.00;96597.56;5065376;28;20212;-75
2022/10/08 02:33:50;;;;;;;4.50;3.60;;;;;;;12.47;100.00;96601.69;5063473;28;20209;-75
2022/10/08 02:36:22;;;;;;;5.53;3.40;;;;;;;12.52;100.00;96598.25;5058737;28;20197;-74
2022/10/08 02:38:53;;;;;;;7.20;4.07;;;;;;;12.46;100.00;96604.63;5065928;28;20205;-75
2022/10/08 02:41:23;;;;;;;6.23;3.77;;;;;;;12.45;100.00;96601.09;5062103;28;20293;-75
2022/10/08 02:43:54;;;;;;;4.00;3.50;;;;;;;12.47;100.00;96609.81;5064257;28;20292;-75
2022/10/08 02:46:24;;;;;;;4.93;3.30;;;;;;;12.45;100.00;96609.22;5068070;28;20229;-75
2022/10/08 02:48:58;;;;;;;6.43;4.00;;;;;;;12.43;100.00;96605.91;5063032;28;20201;-75
2022/10/08 02:51:28;;;;;;;3.77;3.30;;;;;;;12.41;100.00;96607.22;5061349;28;20247;-75
2022/10/08 02:53:56;;;;;;;4.47;3.67;;;;;;;12.40;100.00;96608.28;5065274;28;20304;-74
2022/10/08 02:56:28;;;;;;;5.17;3.40;;;;;;;12.36;100.00;96605.22;5064219;28;20292;-75
2022/10/08 02:58:56;;;;;;;7.40;3.37;;;;;;;12.37;100.00;96606.84;5064891;28;20219;-74
2022/10/08 03:01:30;;;;;;;5.47;3.30;;;;;;;12.33;100.00;96599.44;5063219;28;20217;-75
2022/10/08 03:04:03;;;;;;;4.43;3.93;;;;;;;12.31;100.00;96601.56;5065142;28;20224;-75
2022/10/08 03:06:32;;;;;;;5.77;3.77;;;;;;;12.26;100.00;96601.44;5064424;28;20297;-75
2022/10/08 03:09:01;;;;;;;3.93;3.53;;;;;;;12.21;100.00;96595.91;5064995;28;20197;-75
2022/10/08 03:11:30;;;;;;;4.17;3.57;;;;;;;12.20;100.00;96599.66;5061971;28;20312;-74
2022/10/08 03:14:02;;;;;;;5.43;3.37;;;;;;;12.25;100.00;96603.31;5063333;28;20197;-75
2022/10/08 03:16:38;;;;;;;4.60;3.43;;;;;;;12.34;100.00;96606.50;5061821;28;20225;-75
2022/10/08 03:19:07;;;;;;;5.20;3.33;;;;;;;12.46;100.00;96610.03;5062591;28;20277;-75
2022/10/08 03:21:35;;;;;;;4.63;3.57;;;;;;;12.54;100.00;96608.84;5063771;28;20204;-75
2022/10/08 03:24:02;;;;;;;5.67;3.80;;;;;;;12.61;100.00;96607.66;5059398;28;20225;-75
2022/10/08 03:26:29;;;;;;;4.33;3.90;;;;;;;12.69;100.00;96610.03;5061662;28;20205;-75
2022/10/08 03:28:56;;;;;;;5.27;3.73;;;;;;;12.65;100.00;96611.56;5066193;28;20219;-75
2022/10/08 03:31:24;;;;;;;7.10;3.97;;;;;;;12.59;100.00;96609.78;5062577;28;20206;-74
2022/10/08 03:33:51;;;;;;;6.83;3.73;;;;;;;12.57;100.00;96609.22;5062263;28;20201;-75
2022/10/08 03:36:19;;;;;;;3.90;3.47;;;;;;;12.54;100.00;96603.44;5060643;28;20197;-75
2022/10/08 03:38:46;;;;;;;4.30;3.90;;;;;;;12.55;100.00;96611.34;5063600;28;20205;-74
2022/10/08 03:41:14;;;;;;;4.80;3.30;;;;;;;12.53;100.00;96602.63;5063590;28;20213;-75
2022/10/08 03:43:41;;;;;;;4.97;4.30;;;;;;;12.53;100.00;96608.03;5063466;28;20240;-74
2022/10/08 03:46:10;;;;;;;5.37;3.63;;;;;;;12.55;100.00;96607.81;5067246;28;20220;-74
2022/10/08 03:48:39;;;;;;;5.43;3.20;;;;;;;12.63;100.00;96608.28;5057540;28;20205;-74
2022/10/08 03:51:09;;;;;;;3.57;3.27;;;;;;;12.72;100.00;96604.13;5064671;28;20210;-75
2022/10/08 03:53:38;;;;;;;3.10;2.80;;;;;;;12.80;100.00;96606.47;5065466;28;20220;-75
2022/10/08 03:56:07;;;;;;;5.33;3.30;;;;;;;12.95;100.00;96607.84;5066307;28;20208;-75
2022/10/08 03:58:35;;;;;;;3.10;2.80;;;;;;;13.09;100.00;96601.13;5059109;28;20217;-75
2022/10/08 04:01:04;;;;;;;3.90;3.03;;;;;;;13.34;100.00;96608.97;5064355;28;20209;-75
2022/10/08 04:03:32;;;;;;;4.00;2.80;;;;;;;13.37;100.00;96614.72;5063333;28;20217;-75
2022/10/08 04:06:01;;;;;;;4.27;2.83;;;;;;;13.39;100.00;96606.34;5061076;28;20213;-75
2022/10/08 04:08:28;;;;;;;6.40;3.50;;;;;;;13.52;100.00;96603.38;5058278;28;20279;-75
2022/10/08 04:10:56;;;;;;;6.63;2.73;;;;;;;13.58;100.00;96605.09;5060121;28;20264;-75
2022/10/08 04:13:23;;;;;;;4.70;3.00;;;;;;;13.58;100.00;96603.22;5061330;28;20272;-75
2022/10/08 04:15:50;;;;;;;4.00;3.23;;;;;;;13.52;100.00;96598.78;5064320;28;20518;-74
2022/10/08 04:18:17;;;;;;;5.13;3.30;;;;;;;13.44;100.00;96591.00;5063504;28;20214;-75
2022/10/08 04:20:45;;;;;;;3.53;3.10;;;;;;;13.38;100.00;96594.69;5057412;28;20205;-75
2022/10/08 04:23:13;;;;;;;4.07;2.67;;;;;;;13.37;100.00;96593.03;5062093;28;20217;-74
2022/10/08 04:25:49;;;;;;;5.33;2.83;;;;;;;13.37;100.00;96601.16;5061405;28;20236;-75
2022/10/08 04:28:16;;;;;;;3.60;3.30;;;;;;;13.36;100.00;96602.22;5062820;28;20206;-75
2022/10/08 04:30:43;;;;;;;3.50;3.20;;;;;;;13.38;100.00;96602.81;5060726;28;20201;-74
2022/10/08 04:33:11;;;;;;;6.43;3.40;;;;;;;13.36;100.00;96601.41;5051885;28;20212;-74
2022/10/08 04:35:38;;;;;;;9.27;3.30;;;;;;;13.35;100.00;96606.03;5056814;28;20208;-75
2022/10/08 04:38:05;;;;;;;5.00;3.10;;;;;;;13.37;100.00;96614.72;5062765;28;20204;-75
2022/10/08 04:40:33;;;;;;;3.40;3.10;;;;;;;13.37;100.00;96619.34;5058689;28;20222;-74
2022/10/08 04:43:00;;;;;;;3.80;3.07;;;;;;;13.26;100.00;96615.63;5059933;28;20201;-75
2022/10/08 04:45:27;;;;;;;9.27;3.47;;;;;;;13.25;100.00;96619.38;5062000;28;20221;-74
2022/10/08 04:47:54;;;;;;;8.10;3.60;;;;;;;13.19;100.00;96610.31;5063171;28;20316;-74
2022/10/08 04:50:21;;;;;;;5.63;5.00;;;;;;;13.25;100.00;96622.09;5059219;28;20232;-74
2022/10/08 04:52:48;;;;;;;3.90;3.23;;;;;;;13.30;100.00;96627.63;5062430;28;20201;-75
2022/10/08 04:55:16;;;;;;;3.70;3.20;;;;;;;13.21;100.00;96619.03;5061752;28;20206;-73
2022/10/08 04:57:44;;;;;;;4.50;3.50;;;;;;;13.26;100.00;96637.31;5064836;28;20200;-76
2022/10/08 05:00:13;;;;;;;6.60;3.70;;;;;;;13.23;100.00;96630.47;5061933;28;20201;-75
2022/10/08 05:02:39;;;;;;;4.53;3.37;;;;;;;13.19;100.00;96625.75;5064057;28;20194;-74
2022/10/08 05:05:07;;;;;;;6.03;3.50;;;;;;;13.25;100.00;96635.66;5061830;28;20218;-74
2022/10/08 05:07:34;;;;;;;4.87;3.37;;;;;;;13.28;100.00;96632.44;5065496;28;20201;-75
2022/10/08 05:10:01;;;;;;;4.97;3.23;;;;;;;13.23;100.00;96622.34;5058147;28;20215;-74
2022/10/08 05:12:28;;;;;;;4.10;3.40;;;;;;;13.27;100.00;96616.44;5065275;28;20233;-74
2022/10/08 05:14:56;;;;;;;4.90;3.90;;;;;;;13.27;100.00;96622.66;5057528;28;20234;-74
2022/10/08 05:17:24;;;;;;;4.23;3.27;;;;;;;13.22;100.00;96609.84;5060791;28;20203;-74
2022/10/08 05:19:51;;;;;;;4.97;3.40;;;;;;;13.22;100.00;96619.84;5064609;28;20213;-74
2022/10/08 05:22:18;;;;;;;4.57;3.60;;;;;;;13.24;100.00;96617.75;5070624;28;20546;-74
2022/10/08 05:24:45;;;;;;;5.13;3.37;;;;;;;13.24;100.00;96615.03;5061803;28;20238;-75
2022/10/08 05:27:12;;;;;;;6.17;3.83;;;;;;;13.24;100.00;96617.75;5052573;28;20216;-75
2022/10/08 05:29:39;;;;;;;5.17;4.03;;;;;;;13.17;100.00;96617.06;5061511;28;20205;-74
2022/10/08 05:32:08;;;;;;;6.17;3.83;;;;;;;13.13;100.00;96610.41;5061386;28;20197;-74
2022/10/08 05:34:35;;;;;;;10.03;3.63;;;;;;;13.19;100.00;96623.03;5059792;28;20259;-74
2022/10/08 05:37:01;;;;;;;8.50;3.87;;;;;;;13.14;100.00;96628.38;5062363;28;20210;-74
2022/10/08 05:39:28;;;;;;;4.17;3.27;;;;;;;13.12;100.00;96633.16;5062000;28;20206;-74
2022/10/08 05:41:55;;;;;;;3.43;3.07;;;;;;;13.17;100.00;96633.31;5060997;28;20202;-74
2022/10/08 05:44:23;;;;;;;5.80;3.60;;;;;;;13.20;100.00;96621.97;5068060;28;20220;-75
2022/10/08 05:46:50;;;;;;;4.40;3.33;;;;;;;13.19;100.00;96615.72;5056805;28;20201;-75
2022/10/08 05:49:20;;;;;;;4.67;3.37;;;;;;;13.23;100.00;96611.50;5065599;28;20232;-74
2022/10/08 05:51:48;;;;;;;6.10;3.13;;;;;;;13.20;100.00;96611.97;5064806;28;20209;-75
2022/10/08 05:54:16;;;;;;;4.47;3.10;;;;;;;13.22;100.00;96614.44;5062296;28;20212;-75
2022/10/08 05:56:43;;;;;;;5.00;3.10;;;;;;;13.23;100.00;96624.22;5064982;28;20209;-74
2022/10/08 05:59:15;;;;;;;4.70;3.00;;;;;;;13.24;100.00;96617.75;5067610;28;20228;-74
2022/10/08 06:01:43;;;;;;;4.63;3.33;;;;;;;13.28;100.00;96616.19;5066144;28;20233;-75
2022/10/08 06:04:11;;;;;;;3.37;2.90;;;;;;;13.29;100.00;96617.00;5063002;28;20225;-75
2022/10/08 06:06:42;;;;;;;5.43;3.80;;;;;;;13.33;100.00;96612.75;5063787;28;20206;-74
2022/10/08 06:09:12;;;;;;;6.33;4.00;;;;;;;13.23;100.00;96621.50;5059586;28;20205;-75
2022/10/08 06:11:39;;;;;;;4.90;3.90;;;;;;;13.22;100.00;96619.84;5065710;28;20194;-74
2022/10/08 06:14:07;;;;;;;4.63;3.03;;;;;;;13.24;100.00;96623.16;5064144;28;20212;-75
2022/10/08 06:16:35;;;;;;;4.23;3.40;;;;;;;13.27;100.00;96627.28;5062012;28;20320;-75
2022/10/08 06:19:02;;;;;;;4.63;3.63;;;;;;;13.21;100.00;96613.59;5067670;28;20225;-75
2022/10/08 06:21:30;;;;;;;6.40;4.20;;;;;;;13.24;100.00;96624.00;5062473;28;20213;-75
2022/10/08 06:24:00;;;;;;;4.63;3.60;;;;;;;13.26;100.00;96631.88;5080511;28;20229;-75
2022/10/08 06:26:29;;;;;;;7.63;4.00;;;;;;;13.27;100.00;96633.50;5060355;28;20224;-75
2022/10/08 06:28:57;;;;;;;5.80;3.27;;;;;;;13.22;100.00;96644.25;5063203;28;20201;-74
2022/10/08 06:31:24;;;;;;;6.50;4.50;;;;;;;13.20;100.00;96643.66;5063284;28;20201;-75
2022/10/08 06:33:55;;;;;;;5.20;4.20;;;;;;;13.23;100.00;96643.19;5066880;28;20197;-75
2022/10/08 06:36:23;;;;;;;6.93;5.30;;;;;;;13.17;100.00;96649.59;5060890;28;20198;-75
2022/10/08 06:38:51;;;;;;;6.73;4.73;;;;;;;13.21;100.00;96653.47;5056889;28;20209;-75
2022/10/08 06:41:20;;;;;;;11.83;4.57;;;;;;;13.22;100.00;96652.41;5060958;28;20213;-74
2022/10/08 06:43:48;;;;;;;6.77;4.57;;;;;;;13.25;100.00;96651.94;5064177;28;20224;-75
2022/10/08 06:46:15;;;;;;;8.37;4.73;;;;;;;13.28;100.00;96656.84;5062790;28;20197;-75
2022/10/08 06:48:42;;;;;;;7.97;4.60;;;;;;;13.29;100.00;96653.09;5063596;28;20197;-75
2022/10/08 06:51:12;;;;;;;8.10;4.60;;;;;;;13.31;100.00;96660.97;5062417;28;20216;-75
2022/10/08 06:53:40;;;;;;;6.70;4.33;;;;;;;13.32;100.00;96657.22;5062233;28;20267;-74
2022/10/08 06:56:09;;;;;;;6.13;4.43;;;;;;;13.40;100.00;96660.38;5062629;28;20329;-73
2022/10/08 06:58:38;;;;;;;5.97;4.30;;;;;;;13.41;100.00;96661.19;5065990;28;20213;-73
2022/10/08 07:01:07;;;;;;;5.67;4.30;;;;;;;13.42;100.00;96663.69;5064234;28;20233;-73
2022/10/08 07:03:35;;;;;;;7.40;4.23;;;;;;;13.46;100.00;96669.44;5064150;28;20209;-73
2022/10/08 07:06:03;;;;;;;6.13;4.13;;;;;;;13.51;100.00;96672.25;5064551;28;20284;-74
2022/10/08 07:08:31;;;;;;;7.27;4.63;;;;;;;13.55;100.00;96673.41;5062996;28;20211;-73
2022/10/08 07:11:03;;;;;;;9.17;5.87;;;;;;;13.58;100.00;96676.47;5062221;28;20216;-74
2022/10/08 07:13:30;;;;;;;6.73;5.30;;;;;;;13.60;100.00;96670.81;5065793;28;20206;-73
2022/10/08 07:16:03;;;;;;;7.07;5.53;;;;;;;13.60;100.00;96665.38;5066192;28;20233;-73
2022/10/08 07:18:31;;;;;;;7.00;4.77;;;;;;;13.56;100.00;96665.03;5061830;28;20233;-75
2022/10/08 07:20:58;;;;;;;8.00;4.43;;;;;;;13.61;100.00;96673.25;5058663;28;20268;-74
2022/10/08 07:23:26;;;;;;;5.00;4.40;;;;;;;13.67;100.00;96670.66;5063408;28;20215;-76
2022/10/08 07:25:57;;;;;;;7.30;4.83;;;;;;;13.73;100.00;96669.69;5064688;28;20210;-74
2022/10/08 07:28:25;;;;;;;7.37;5.07;;;;;;;13.75;100.00;96678.41;5064207;28;20273;-74
2022/10/08 07:30:52;;;;;;;8.43;4.97;;;;;;;13.80;100.00;96667.66;5066346;28;20229;-75
2022/10/08 07:33:20;;;;;;;5.63;5.00;;;;;;;13.81;100.00;96675.56;5063335;28;20205;-75
2022/10/08 07:35:48;;;;;;;11.07;4.67;;;;;;;13.84;100.00;96671.53;5061282;28;20189;-74
2022/10/08 07:38:17;;;;;;;8.20;4.47;;;;;;;13.89;100.00;96677.06;5060753;28;20210;-75
2022/10/08 07:40:45;;;;;;;5.57;4.20;;;;;;;13.95;100.00;96678.81;5050247;28;20213;-74
2022/10/08 07:43:12;;;;;;;5.77;3.87;;;;;;;14.03;100.00;96676.50;5063247;28;20304;-74
2022/10/08 07:45:45;;;;;;;6.70;3.80;;;;;;;14.06;100.00;96677.91;5063973;28;20233;-74
2022/10/08 07:48:12;;;;;;;4.57;3.60;;;;;;;14.19;100.00;96680.34;5062852;28;20202;-75
2022/10/08 07:50:40;;;;;;;3.43;3.13;;;;;;;14.64;100.00;96671.31;5063929;28;20198;-75
2022/10/08 07:53:07;;;;;;;3.73;3.30;;;;;;;14.76;100.00;96669.34;5078061;28;20294;-76
2022/10/08 07:55:34;;;;;;;7.57;3.50;;;;;;;14.91;100.00;96668.72;5062463;28;20203;-76
2022/10/08 07:58:01;;;;;;;5.23;2.97;;;;;;;14.99;100.00;96660.97;5062569;28;20197;-75
2022/10/08 08:00:28;;;;;;;4.30;3.43;;;;;;;15.14;100.00;96666.63;5060351;28;20209;-75
2022/10/08 08:02:55;;;;;;;4.00;3.30;;;;;;;15.20;100.00;96663.97;5063172;28;20201;-76
2022/10/08 08:05:22;;;;;;;3.90;3.30;;;;;;;15.18;100.00;96657.97;5062506;28;20221;-75
2022/10/08 08:07:51;;;;;;;7.37;3.30;;;;;;;15.21;100.00;96661.03;5057591;28;20206;-75
2022/10/08 08:10:18;;;;;;;5.63;3.23;;;;;;;15.24;100.00;96654.22;5063649;28;20205;-76
2022/10/08 08:12:45;;;;;;;4.30;3.30;;;;;;;15.19;100.00;96649.56;5062691;28;20205;-75
2022/10/08 08:15:12;;;;;;;6.43;3.33;;;;;;;15.33;100.00;96652.72;5063918;28;20225;-75
2022/10/08 08:17:39;;;;;;;3.53;3.23;;;;;;;15.42;100.00;96660.19;5062478;28;20211;-75
2022/10/08 08:20:06;;;;;;;5.27;3.30;;;;;;;15.44;100.00;96654.50;5064201;28;20205;-76
2022/10/08 08:22:33;;;;;;;3.57;2.80;;;;;;;15.57;100.00;96665.03;5062196;28;20264;-75
2022/10/08 08:25:02;;;;;;;3.40;2.97;;;;;;;15.62;100.00;96656.94;5060918;28;20217;-76
2022/10/08 08:27:29;;;;;;;4.03;2.93;;;;;;;15.69;100.00;96668.44;5063437;28;20209;-75
2022/10/08 08:29:56;;;;;;;8.07;3.00;;;;;;;15.75;100.00;96667.41;5063337;28;20239;-75
2022/10/08 08:32:23;;;;;;;5.30;2.80;;;;;;;15.85;100.00;96656.63;5060491;28;20465;-75
2022/10/08 08:34:51;;;;;;;3.50;3.10;;;;;;;15.93;100.00;96657.25;5064250;28;20230;-74
2022/10/08 08:37:18;;;;;;;3.87;2.70;;;;;;;16.00;100.00;96666.03;5066575;28;20193;-75
2022/10/08 08:39:45;;;;;;;5.10;2.90;;;;;;;16.00;100.00;96663.31;5062568;28;20209;-75
2022/10/08 08:42:27;;;;;;;4.23;2.80;;;;;;;16.06;100.00;96678.66;5065144;28;20296;-74
2022/10/08 08:44:58;;;;;;;3.30;3.00;;;;;;;16.07;100.00;96681.13;5066100;28;20214;-75
2022/10/08 08:47:30;;;;;;;4.57;2.97;;;;;;;16.00;100.00;96657.88;5063220;28;20216;-73
2022/10/08 08:50:01;;;;;;;4.17;2.67;;;;;;;16.13;100.00;96673.81;5065512;28;20201;-74
2022/10/08 08:52:32;;;;;;;3.30;2.63;;;;;;;16.09;100.00;96673.50;5063789;28;20231;-74
2022/10/08 08:55:01;;;;;;;3.60;3.00;;;;;;;16.23;100.00;96682.91;5058001;28;20193;-74
2022/10/08 08:57:37;;;;;;;5.83;3.40;;;;;;;16.28;100.00;96682.97;5063282;28;20217;-74
2022/10/08 09:00:08;;;;;;;7.93;3.37;;;;;;;16.34;100.00;96686.53;5081194;28;20205;-74
2022/10/08 09:02:40;;;;;;;4.77;3.50;;;;;;;16.37;100.00;96680.59;5072033;28;20241;-74
2022/10/08 09:05:12;;;;;;;3.30;3.00;;;;;;;16.31;100.00;96681.63;5061844;28;20279;-73
2022/10/08 09:07:42;;;;;;;4.00;3.20;;;;;;;16.33;100.00;96676.75;5064436;28;20221;-74
2022/10/08 09:10:16;;;;;;;5.53;3.20;;;;;;;16.35;100.00;96685.47;5063867;28;20317;-74
2022/10/08 09:12:45;;;;;;;3.57;3.07;;;;;;;16.43;100.00;96676.81;5063169;28;20289;-74
2022/10/08 09:15:19;;;;;;;4.97;3.00;;;;;;;16.47;100.00;96677.97;5066480;28;20229;-74
2022/10/08 09:17:51;;;;;;;8.37;3.27;;;;;;;16.53;100.00;96681.53;5066832;28;20201;-75
2022/10/08 09:20:21;;;;;;;5.63;2.90;;;;;;;16.61;100.00;96681.09;5057331;28;20520;-74
2022/10/08 09:22:50;;;;;;;3.50;2.97;;;;;;;16.70;100.00;96684.16;5069937;28;20225;-74
2022/10/08 09:25:20;;;;;;;5.63;3.67;;;;;;;16.79;100.00;96677.16;5072467;28;20315;-74
2022/10/08 09:27:51;;;;;;;5.27;3.50;;;;;;;16.88;100.00;96681.84;5067710;28;20228;-74
2022/10/08 09:30:30;;;;;;;3.43;3.03;;;;;;;16.94;100.00;96685.44;5068384;28;20211;-74
2022/10/08 09:32:59;;;;;;;5.03;3.60;;;;;;;17.13;100.00;96683.94;5059420;28;20213;-74
2022/10/08 09:35:27;;;;;;;3.83;3.20;;;;;;;17.20;100.00;96681.78;5063728;28;20204;-74
2022/10/08 09:37:56;;;;;;;5.23;3.50;;;;;;;17.31;100.00;96679.94;5065723;28;20277;-74
2022/10/08 09:40:24;;;;;;;4.03;3.50;;;;;;;17.42;100.00;96687.09;5087009;28;20227;-74
2022/10/08 09:43:13;;;;;;;4.67;3.70;;;;;;;17.50;100.00;96680.31;5069290;28;20284;-74
2022/10/08 09:45:43;;;;;;;5.30;3.70;;;;;;;17.49;100.00;96670.47;5059087;28;20276;-75
2022/10/08 09:48:22;;;;;;;5.20;3.60;;;;;;;17.60;100.00;96678.47;5061707;28;20205;-74
2022/10/08 09:50:54;;;;;;;5.77;3.80;;;;;;;17.65;100.00;96685.88;5069085;28;20209;-74
2022/10/08 09:53:23;;;;;;;6.70;3.20;;;;;;;17.58;100.00;96680.63;5069967;28;20292;-74
2022/10/08 09:55:56;;;;;;;6.60;4.00;;;;;;;17.63;100.00;96677.94;5068248;28;20208;-75
2022/10/08 09:58:24;;;;;;;5.70;3.70;;;;;;;17.61;100.00;96688.25;5068339;28;20209;-74
2022/10/08 10:01:02;;;;;;;6.10;3.50;;;;;;;17.56;100.00;96685.53;5059460;28;20210;-74
2022/10/08 10:03:31;;;;;;;5.53;4.20;;;;;;;17.52;100.00;96691.78;5064702;28;20228;-74
2022/10/08 10:05:59;;;;;;;5.63;4.03;;;;;;;17.50;100.00;96686.59;5065452;28;20240;-74
2022/10/08 10:08:53;;;;;;;5.03;4.30;;;;;;;17.45;100.00;96691.19;5070567;28;20206;-74
2022/10/08 10:11:28;;;;;;;7.07;4.87;;;;;;;17.33;100.00;96689.50;5062217;28;20219;-74
2022/10/08 10:13:59;;;;;;;7.67;4.30;;;;;;;17.15;100.00;96687.22;5060001;28;20212;-74
2022/10/08 10:16:33;;;;;;;5.13;4.60;;;;;;;17.05;100.00;96680.88;5070993;28;20316;-74
2022/10/08 10:19:03;;;;;;;5.40;4.13;;;;;;;17.05;100.00;96676.22;5060195;28;20325;-74
2022/10/08 10:21:37;;;;;;;4.87;3.80;;;;;;;17.00;100.00;96673.50;5067335;28;20249;-74
2022/10/08 10:24:23;;;;;;;5.67;3.97;;;;;;;17.01;100.00;96680.59;5070662;28;20200;-74
2022/10/08 10:26:52;;;;;;;4.97;4.10;;;;;;;16.94;100.00;96669.88;5060724;28;20229;-74
2022/10/08 10:29:25;;;;;;;5.43;4.13;;;;;;;16.92;100.00;96676.72;5069229;28;20205;-74
2022/10/08 10:31:59;;;;;;;8.60;4.20;;;;;;;16.86;100.00;96669.56;5055865;28;20210;-74
2022/10/08 10:34:29;;;;;;;5.30;4.30;;;;;;;16.84;100.00;96671.75;5070859;28;20209;-74
2022/10/08 10:36:59;;;;;;;5.23;4.60;;;;;;;16.84;100.00;96679.94;5084534;28;20229;-74
2022/10/08 10:39:36;;;;;;;5.00;3.97;;;;;;;16.83;100.00;96678.28;5068716;28;20224;-74
2022/10/08 10:42:10;;;;;;;6.80;3.73;;;;;;;16.82;100.00;96676.63;5065156;28;20288;-74
2022/10/08 10:44:51;;;;;;;6.27;4.20;;;;;;;16.84;100.00;96683.44;5054838;28;20217;-74
2022/10/08 10:47:21;;;;;;;4.70;4.20;;;;;;;16.88;100.00;96681.03;5070323;28;20203;-75
2022/10/08 10:49:49;;;;;;;7.80;4.60;;;;;;;16.81;100.00;96673.06;5053909;28;20202;-74
2022/10/08 10:52:39;;;;;;;5.27;4.10;;;;;;;16.84;100.00;96682.66;5070727;28;20190;-74
2022/10/08 10:55:18;;;;;;;6.17;3.90;;;;;;;16.84;100.00;96683.44;5058423;28;20214;-74
2022/10/08 10:58:03;;;;;;;4.57;3.80;;;;;;;16.89;100.00;96686.22;5062308;28;20214;-74
2022/10/08 11:00:39;;;;;;;7.60;4.13;;;;;;;16.88;100.00;96686.47;5059504;28;20267;-74
2022/10/08 11:03:14;;;;;;;5.17;4.00;;;;;;;16.81;100.00;96681.25;5067231;28;20274;-74
2022/10/08 11:05:43;;;;;;;3.83;3.50;;;;;;;16.82;100.00;96687.53;5057402;28;20231;-74
2022/10/08 11:08:29;;;;;;;6.77;4.07;;;;;;;16.85;100.00;96687.00;5059761;28;20213;-74
2022/10/08 11:11:09;;;;;;;4.37;3.93;;;;;;;16.78;100.00;96684.50;5055262;28;20272;-74
2022/10/08 11:13:47;;;;;;;6.80;3.93;;;;;;;16.77;100.00;96676.56;5066685;28;20328;-74
2022/10/08 11:16:29;;;;;;;5.13;4.03;;;;;;;16.74;100.00;96685.28;5057939;28;20237;-74
2022/10/08 11:18:58;;;;;;;5.27;4.10;;;;;;;16.72;100.00;96684.72;5055187;28;20210;-74
2022/10/08 11:21:42;;;;;;;5.43;4.50;;;;;;;16.64;100.00;96684.13;5067765;28;20548;-74
2022/10/08 11:24:38;;;;;;;4.73;4.23;;;;;;;16.64;100.00;96681.41;5067611;28;20209;-74
2022/10/08 11:27:12;;;;;;;7.77;4.67;;;;;;;16.63;100.00;96679.75;5067099;28;20275;-74
2022/10/08 11:29:50;;;;;;;8.53;4.83;;;;;;;16.63;100.00;96679.75;5066864;28;20216;-74
2022/10/08 11:32:20;;;;;;;8.97;5.00;;;;;;;16.62;100.00;96683.56;5050011;28;20201;-74
2022/10/08 11:34:53;;;;;;;8.60;5.00;;;;;;;16.62;100.00;96683.56;5063974;28;20205;-74
2022/10/08 11:37:27;;;;;;;6.60;5.30;;;;;;;16.56;100.00;96691.94;5060521;28;20208;-74
2022/10/08 11:40:03;;;;;;;5.87;4.67;;;;;;;16.51;100.00;96687.25;5070249;28;20210;-74
2022/10/08 11:42:38;;;;;;;6.00;5.40;;;;;;;16.43;100.00;96685.00;5059888;28;20202;-74